EDT,Max TemperatureF,Mean TemperatureF,Min TemperatureF,Max Dew PointF,MeanDew PointF,Min DewpointF,Max Humidity, Mean Humidity, Min Humidity, Max Sea Level PressureIn, Mean Sea Level PressureIn, Min Sea Level PressureIn, Max VisibilityMiles, Mean VisibilityMiles, Min VisibilityMiles, Max Wind SpeedMPH, Mean Wind SpeedMPH, Max Gust SpeedMPH,PrecipitationIn, CloudCover, Events, WindDirDegrees
2013-6-1,81,74,66,66,63,61,90,72,54,29.84,29.77,29.68,10,10,10,18,9,25,0.12,5,Rain,212
2013-6-2,70,60,50,61,52,40,84,73,61,30.02,29.80,29.63,10,10,10,24,13,32,0.00,8,,276
2013-6-3,68,55,41,45,39,36,89,63,37,30.10,30.06,30.02,10,10,10,15,5,20,0.00,1,,307
2013-6-4,72,59,45,45,43,41,86,60,34,30.21,30.17,30.12,10,10,10,12,4,18,0.00,0,,78
2013-6-5,72,62,52,49,42,37,72,53,33,30.21,30.12,30.02,10,10,10,17,7,18,0.01,4,Rain,78
2013-6-6,70,63,55,51,48,45,72,64,55,30.04,29.94,29.89,10,10,10,17,10,22,0.02,6,Rain,48
2013-6-7,65,58,51,52,49,47,89,76,63,29.94,29.92,29.89,10,10,9,16,7,21,0.00,7,,30
2013-6-8,74,64,53,53,51,49,89,67,44,30.08,29.99,29.93,10,10,10,7,2,13,0.00,5,,119
2013-6-9,78,67,56,56,53,49,80,63,45,30.12,30.06,29.95,10,10,7,22,10,28,0.00,4,,125
2013-6-10,76,69,61,65,61,48,93,71,49,29.96,29.83,29.74,10,5,1,12,6,18,0.85,7,Rain,84
2013-6-11,81,72,63,64,62,60,93,76,58,29.90,29.85,29.79,10,6,1,17,7,20,0.00,6,,289
2013-6-12,77,68,59,66,63,56,90,77,64,29.91,29.83,29.68,10,6,2,16,4,20,0.19,3,Rain-Thunderstorm,201
2013-6-13,79,71,63,65,60,53,93,68,43,29.94,29.73,29.61,10,6,2,21,11,30,0.70,6,Rain-Thunderstorm,17
2013-6-14,76,67,57,58,51,45,80,59,38,30.09,30.04,29.96,10,10,10,16,7,22,0.00,1,,9
2013-6-15,79,68,57,61,56,49,78,63,48,30.08,30.01,29.91,10,10,10,12,5,18,0.01,3,,221
2013-6-16,82,74,65,64,61,53,87,67,46,29.88,29.83,29.76,10,10,3,20,11,25,0.32,5,Rain,258
2013-6-17,86,72,58,63,58,54,87,64,40,29.97,29.90,29.82,10,10,8,24,6,39,0.15,2,Rain-Thunderstorm,37
2013-6-18,71,62,53,57,47,40,86,60,33,30.10,30.02,29.94,10,10,8,21,11,25,0.00,1,Rain,43
2013-6-19,76,61,45,53,44,39,86,60,33,30.20,30.15,30.10,10,10,8,10,3,13,0.00,0,,91
2013-6-20,83,68,52,55,51,47,86,60,33,30.22,30.18,30.15,10,10,10,13,5,28,0.00,0,,213
2013-6-21,86,73,59,64,58,52,80,61,42,30.21,30.14,30.04,10,10,10,14,6,17,0.00,1,,179
2013-6-22,90,80,70,71,65,56,79,63,46,30.08,30.03,29.97,10,10,7,15,6,22,0.01,2,,213
2013-6-23,91,81,71,70,67,63,90,64,38,30.04,30.01,29.96,10,8,4,18,8,55,0.00,0,,217
2013-6-24,89,79,69,70,67,64,90,70,50,30.05,29.99,29.92,10,8,1,24,8,30,0.80,3,Rain-Thunderstorm,217
2013-6-25,82,75,68,69,66,64,90,76,62,29.97,29.91,29.83,10,8,0,15,7,20,0.48,4,Rain-Thunderstorm,244
2013-6-26,86,76,66,69,66,63,93,74,55,29.86,29.81,29.75,10,10,8,22,3,23,T,3,Rain,210
2013-6-27,86,77,67,70,67,63,90,76,61,29.76,29.72,29.65,10,8,1,28,4,33,0.56,5,Rain-Thunderstorm,108
2013-6-28,79,72,65,65,64,61,93,78,62,29.68,29.60,29.54,10,8,1,0,7,0,0.29,6,Rain-Thunderstorm,317
2013-6-29,75,70,64,63,59,55,93,75,57,29.76,29.62,29.56,10,9,6,15,8,25,0.00,7,,10
2013-6-30,81,71,61,61,56,41,84,62,40,29.98,29.87,29.76,10,10,10,20,8,30,T,3,Thunderstorm,25